Time;durP1;ratioP1;P1;durP2;ratioP2;P2;SDS_P1;SDS_P2;PMS_P1;PMS_P2;Temp;Humidity;BMP_temperature;BMP_pressure;BME280_temperature;BME280_humidity;BME280_pressure;Samples;Min_cycle;Max_cycle;Signal;HPM_P1;HPM_P2
2022/07/03 00:00:27;;;;;;;7.97;1.48;;;17.80;99.90;;;;;;4880515;29;20021;-90
2022/07/03 00:02:52;;;;;;;4.85;1.30;;;17.70;99.90;;;;;;4871674;29;20153;-89
2022/07/03 00:05:18;;;;;;;3.45;0.80;;;17.70;99.90;;;;;;4876665;29;20367;-91
2022/07/03 00:07:44;;;;;;;7.93;1.52;;;17.70;99.90;;;;;;4876442;29;20533;-80
2022/07/03 00:10:10;;;;;;;4.95;1.15;;;17.80;99.90;;;;;;4876238;29;20025;-89
2022/07/03 00:12:35;;;;;;;4.68;1.00;;;17.70;99.90;;;;;;4876531;29;20056;-75
2022/07/03 00:15:01;;;;;;;4.15;1.00;;;17.70;99.90;;;;;;4876545;29;20032;-76
2022/07/03 00:17:27;;;;;;;4.70;1.05;;;17.60;99.90;;;;;;4876175;29;20033;-75
2022/07/03 00:19:54;;;;;;;4.40;0.95;;;17.60;99.90;;;;;;4867091;29;20021;-75
2022/07/03 00:22:20;;;;;;;4.50;0.93;;;17.60;99.90;;;;;;4871985;29;20060;-75
2022/07/03 00:25:02;;;;;;;5.32;0.98;;;17.60;99.90;;;;;;4876134;29;20049;-75
2022/07/03 00:27:28;;;;;;;3.53;1.02;;;17.60;99.90;;;;;;4876241;29;20033;-76
2022/07/03 00:29:58;;;;;;;3.50;1.15;;;17.60;99.90;;;;;;4876247;29;20100;-75
2022/07/03 00:32:25;;;;;;;7.03;0.90;;;17.50;99.90;;;;;;4876064;29;20033;-75
2022/07/03 00:34:54;;;;;;;4.20;0.80;;;17.60;99.90;;;;;;4875998;29;20017;-75
2022/07/03 00:37:20;;;;;;;3.20;0.90;;;17.50;99.90;;;;;;4876385;29;20025;-75
2022/07/03 00:39:46;;;;;;;6.68;1.00;;;17.60;99.90;;;;;;4876252;29;20031;-75
2022/07/03 00:42:12;;;;;;;3.85;0.93;;;17.50;99.90;;;;;;4876411;29;20029;-75
2022/07/03 00:44:53;;;;;;;5.22;1.05;;;17.40;99.90;;;;;;4876085;29;20021;-75
2022/07/03 00:47:25;;;;;;;3.53;0.75;;;17.40;99.90;;;;;;4875965;29;20058;-75
2022/07/03 00:49:55;;;;;;;3.45;1.10;;;17.50;99.90;;;;;;4876019;29;20025;-75
2022/07/03 00:52:22;;;;;;;6.68;1.13;;;17.50;99.90;;;;;;4876157;29;20035;-75
2022/07/03 00:54:55;;;;;;;2.65;0.90;;;17.50;99.90;;;;;;4875969;29;20409;-75
2022/07/03 00:57:23;;;;;;;5.28;1.20;;;17.50;99.90;;;;;;4876285;29;20081;-75
2022/07/03 00:59:50;;;;;;;7.97;1.10;;;17.50;99.90;;;;;;4861564;29;20523;-76
2022/07/03 01:02:38;;;;;;;7.60;1.15;;;17.50;99.90;;;;;;4876099;29;20058;-75
2022/07/03 01:05:24;;;;;;;2.75;0.80;;;17.50;99.90;;;;;;4875929;29;20073;-75
2022/07/03 01:08:32;;;;;;;5.32;0.88;;;17.60;99.90;;;;;;4875971;29;20037;-75
2022/07/03 01:11:28;;;;;;;3.30;1.30;;;17.50;99.90;;;;;;4866362;29;20112;-75
2022/07/03 01:14:02;;;;;;;6.60;1.00;;;17.50;99.90;;;;;;4875817;29;20029;-75
2022/07/03 01:16:38;;;;;;;2.65;0.80;;;17.50;99.90;;;;;;4875847;29;20745;-75
2022/07/03 01:19:18;;;;;;;5.32;1.17;;;17.40;99.90;;;;;;4876018;29;20077;-75
2022/07/03 01:22:15;;;;;;;6.95;1.08;;;17.40;99.90;;;;;;4875880;29;20025;-74
2022/07/03 01:25:15;;;;;;;5.07;0.90;;;17.40;99.90;;;;;;4837239;29;20045;-75
2022/07/03 01:28:09;;;;;;;7.15;1.77;;;17.40;99.90;;;;;;4838389;29;20133;-75
2022/07/03 01:30:46;;;;;;;5.43;1.10;;;17.40;99.90;;;;;;4875702;29;20025;-75
2022/07/03 01:33:16;;;;;;;4.35;1.10;;;17.30;99.90;;;;;;4863563;29;20048;-75
2022/07/03 01:36:00;;;;;;;3.20;1.05;;;17.40;99.90;;;;;;4875884;29;20103;-75
2022/07/03 01:38:34;;;;;;;5.80;1.25;;;17.40;99.90;;;;;;4879306;29;20052;-75
2022/07/03 01:41:02;;;;;;;4.72;1.00;;;17.40;99.90;;;;;;4879368;29;20696;-75
2022/07/03 01:43:33;;;;;;;4.68;1.00;;;17.40;99.90;;;;;;4879298;29;20085;-75
2022/07/03 01:46:03;;;;;;;3.60;0.93;;;17.30;99.90;;;;;;4879157;29;20514;-75
2022/07/03 01:48:30;;;;;;;3.67;1.40;;;17.30;99.90;;;;;;4878969;29;20039;-76
2022/07/03 01:50:57;;;;;;;3.97;1.17;;;17.40;99.90;;;;;;4879054;29;20109;-75
2022/07/03 01:53:28;;;;;;;3.25;1.25;;;17.40;99.90;;;;;;4877698;29;20029;-75
2022/07/03 01:56:00;;;;;;;4.03;0.98;;;17.40;99.90;;;;;;4878942;29;20029;-75
2022/07/03 01:58:26;;;;;;;5.20;1.10;;;17.40;99.90;;;;;;4878873;29;20029;-76
2022/07/03 02:01:03;;;;;;;3.13;1.23;;;17.40;99.90;;;;;;4878966;29;20029;-75
2022/07/03 02:03:31;;;;;;;4.70;1.17;;;17.30;99.90;;;;;;4878516;29;20051;-75
2022/07/03 02:06:20;;;;;;;4.53;1.35;;;17.30;99.90;;;;;;4878822;29;20025;-75
2022/07/03 02:09:05;;;;;;;5.97;1.10;;;17.30;99.90;;;;;;4878744;29;20081;-75
2022/07/03 02:11:39;;;;;;;2.97;0.93;;;17.20;99.90;;;;;;4878671;29;20032;-75
2022/07/03 02:14:15;;;;;;;2.85;1.05;;;17.20;99.90;;;;;;4870506;29;20029;-75
2022/07/03 02:16:53;;;;;;;5.43;1.13;;;17.10;99.90;;;;;;4887992;29;20032;-75
2022/07/03 02:19:26;;;;;;;5.03;1.33;;;17.10;99.90;;;;;;4878625;29;20029;-75
2022/07/03 02:21:56;;;;;;;3.83;0.93;;;17.20;99.90;;;;;;4878546;29;20037;-75
2022/07/03 02:24:27;;;;;;;5.65;1.40;;;17.30;99.90;;;;;;4878671;29;20084;-75
2022/07/03 02:27:04;;;;;;;4.88;1.38;;;17.20;99.90;;;;;;4878159;29;20032;-75
2022/07/03 02:30:07;;;;;;;3.75;1.00;;;17.20;99.90;;;;;;4878210;29;20032;-75
2022/07/03 02:32:47;;;;;;;5.03;1.10;;;17.00;99.90;;;;;;4878042;29;20060;-74
2022/07/03 02:35:18;;;;;;;3.60;1.00;;;17.00;99.90;;;;;;4878205;29;20029;-74
2022/07/03 02:38:09;;;;;;;3.92;1.25;;;17.00;99.90;;;;;;4878286;29;20116;-74
2022/07/03 02:41:01;;;;;;;4.32;1.33;;;17.00;99.90;;;;;;4878316;29;20501;-74
2022/07/03 02:43:51;;;;;;;4.97;1.35;;;17.00;99.90;;;;;;4866352;29;20053;-74
2022/07/03 02:49:19;;;;;;;4.68;1.25;;;16.90;99.90;;;;;;4878324;29;20159;-74
2022/07/03 02:52:09;;;;;;;3.25;1.23;;;16.90;99.90;;;;;;4877889;29;20025;-77
2022/07/03 02:54:48;;;;;;;3.75;1.30;;;16.80;99.90;;;;;;4877770;29;20060;-74
2022/07/03 02:57:19;;;;;;;5.55;1.33;;;16.80;99.90;;;;;;4878056;29;20095;-74
2022/07/03 02:59:55;;;;;;;4.80;1.50;;;16.80;99.90;;;;;;4877828;29;20021;-74
2022/07/03 03:02:36;;;;;;;4.18;1.30;;;16.80;99.90;;;;;;4877851;29;20025;-74
2022/07/03 03:05:23;;;;;;;3.65;1.20;;;16.80;99.90;;;;;;4877679;29;20592;-74
2022/07/03 03:08:11;;;;;;;9.75;2.47;;;16.80;99.90;;;;;;4877603;29;20037;-75
2022/07/03 03:10:37;;;;;;;5.72;1.40;;;16.80;99.90;;;;;;4865388;29;20052;-74
2022/07/03 03:13:08;;;;;;;4.88;1.45;;;16.80;99.90;;;;;;4877583;29;20033;-74
2022/07/03 03:15:36;;;;;;;4.35;1.17;;;16.80;99.90;;;;;;4877472;29;20099;-74
2022/07/03 03:18:07;;;;;;;5.78;1.48;;;16.80;99.90;;;;;;4877563;29;20501;-74
2022/07/03 03:20:34;;;;;;;6.15;1.48;;;16.60;99.90;;;;;;4877490;29;20530;-74
2022/07/03 03:23:24;;;;;;;5.75;1.50;;;16.60;99.90;;;;;;4877475;29;20136;-74
2022/07/03 03:25:52;;;;;;;3.85;1.45;;;16.70;99.90;;;;;;4877538;29;20104;-74
2022/07/03 03:28:18;;;;;;;4.78;1.40;;;16.50;99.90;;;;;;4877320;29;20037;-74
2022/07/03 03:30:44;;;;;;;3.65;1.38;;;16.50;99.90;;;;;;4877138;29;20032;-74
2022/07/03 03:33:11;;;;;;;8.02;2.38;;;16.50;99.90;;;;;;4877201;29;20033;-74
2022/07/03 03:35:38;;;;;;;8.65;1.80;;;16.50;99.90;;;;;;4877076;29;20073;-74
2022/07/03 03:38:04;;;;;;;4.45;1.20;;;16.60;99.90;;;;;;4877123;29;20029;-74
2022/07/03 03:40:31;;;;;;;4.80;1.60;;;16.60;99.90;;;;;;4865818;29;20510;-74
2022/07/03 03:42:57;;;;;;;4.25;1.48;;;16.50;99.90;;;;;;4874448;29;20032;-74
2022/07/03 03:45:23;;;;;;;5.82;1.65;;;16.50;99.90;;;;;;4877219;29;20029;-74
2022/07/03 03:47:49;;;;;;;5.18;2.13;;;16.50;99.90;;;;;;4876713;29;20055;-74
2022/07/03 03:50:15;;;;;;;6.38;1.50;;;16.40;99.90;;;;;;4876808;29;20053;-74
2022/07/03 03:52:41;;;;;;;5.63;1.67;;;16.50;99.90;;;;;;4876823;29;20029;-74
2022/07/03 03:55:09;;;;;;;7.40;1.67;;;16.50;99.90;;;;;;4876731;29;20403;-74
2022/07/03 03:57:35;;;;;;;4.05;1.35;;;16.50;99.90;;;;;;4876960;29;20032;-74
2022/07/03 04:00:01;;;;;;;3.83;1.50;;;16.40;99.90;;;;;;4876285;29;20036;-74
2022/07/03 04:02:27;;;;;;;5.45;1.50;;;16.40;99.90;;;;;;4876493;29;20033;-74
2022/07/03 04:04:52;;;;;;;3.92;1.70;;;16.40;99.90;;;;;;4876682;29;20041;-74
2022/07/03 04:07:18;;;;;;;3.97;1.50;;;16.40;99.90;;;;;;4876807;29;20061;-74
2022/07/03 04:09:44;;;;;;;6.15;2.08;;;16.40;99.90;;;;;;4876607;29;20641;-74
2022/07/03 04:12:10;;;;;;;7.13;1.67;;;16.40;99.90;;;;;;4876494;29;20021;-75
2022/07/03 04:14:36;;;;;;;5.22;1.35;;;16.40;99.90;;;;;;4876614;29;20077;-74
2022/07/03 04:17:02;;;;;;;3.05;1.42;;;16.40;99.90;;;;;;4876518;29;20635;-74
2022/07/03 04:19:28;;;;;;;4.72;1.85;;;16.40;99.90;;;;;;4876371;29;20033;-74
2022/07/03 04:21:54;;;;;;;4.20;1.60;;;16.40;99.90;;;;;;4876793;29;20541;-74
2022/07/03 04:24:19;;;;;;;3.85;1.70;;;16.40;99.90;;;;;;4876678;29;20089;-74
2022/07/03 04:26:45;;;;;;;5.05;1.42;;;16.40;99.90;;;;;;4876255;29;20025;-74
2022/07/03 04:29:11;;;;;;;4.68;1.55;;;16.40;99.90;;;;;;4876367;29;20029;-74
2022/07/03 04:31:37;;;;;;;3.92;1.90;;;16.40;99.90;;;;;;4876204;29;20552;-74
2022/07/03 04:34:02;;;;;;;5.85;1.80;;;16.40;99.90;;;;;;4876284;29;20113;-74
2022/07/03 04:36:28;;;;;;;5.38;1.70;;;16.30;99.90;;;;;;4876191;29;20077;-74
2022/07/03 04:38:54;;;;;;;3.97;1.63;;;16.40;99.90;;;;;;4876300;29;20089;-74
2022/07/03 04:41:20;;;;;;;5.65;1.75;;;16.40;99.90;;;;;;4876422;29;20017;-74
2022/07/03 04:43:45;;;;;;;5.75;1.50;;;16.50;99.90;;;;;;4876188;29;20501;-74
2022/07/03 04:46:11;;;;;;;4.35;1.38;;;16.40;99.90;;;;;;4876099;29;20029;-74
2022/07/03 04:48:37;;;;;;;4.63;1.70;;;16.50;99.90;;;;;;4876053;29;20041;-74
2022/07/03 04:51:02;;;;;;;3.28;1.50;;;16.50;99.90;;;;;;4876260;29;20058;-74
2022/07/03 04:53:28;;;;;;;4.63;1.60;;;16.50;99.90;;;;;;4875944;29;20100;-74
2022/07/03 04:55:54;;;;;;;4.82;1.77;;;16.50;99.90;;;;;;4876239;29;20498;-74
2022/07/03 04:58:19;;;;;;;4.90;1.50;;;16.50;99.90;;;;;;4875917;29;20387;-74
2022/07/03 05:00:45;;;;;;;5.57;1.65;;;16.50;99.90;;;;;;4876161;29;20088;-74
2022/07/03 05:03:12;;;;;;;9.25;1.58;;;16.50;99.90;;;;;;4875704;29;20057;-74
2022/07/03 05:05:38;;;;;;;9.07;2.00;;;16.50;99.90;;;;;;4876147;29;20386;-74
2022/07/03 05:08:04;;;;;;;4.47;1.20;;;16.60;99.90;;;;;;4875965;29;20044;-74
2022/07/03 05:10:29;;;;;;;6.75;1.50;;;16.60;99.90;;;;;;4877214;29;20101;-74
2022/07/03 05:12:55;;;;;;;5.15;1.75;;;16.50;99.90;;;;;;4879679;29;20482;-74
2022/07/03 05:15:21;;;;;;;4.50;1.50;;;16.60;99.90;;;;;;4879572;29;20028;-75
2022/07/03 05:17:47;;;;;;;6.38;1.80;;;16.60;99.90;;;;;;4879469;29;20538;-74
2022/07/03 05:20:27;;;;;;;3.33;1.55;;;16.70;99.90;;;;;;4879746;29;20031;-74
2022/07/03 05:23:01;;;;;;;5.03;1.98;;;16.70;99.90;;;;;;4879704;29;20036;-75
2022/07/03 05:25:28;;;;;;;4.43;1.30;;;16.70;99.90;;;;;;4879639;29;20025;-74
2022/07/03 05:27:54;;;;;;;4.10;1.42;;;16.70;99.90;;;;;;4879345;29;20362;-75
2022/07/03 05:30:22;;;;;;;5.47;1.63;;;16.80;99.90;;;;;;4879562;29;20021;-74
2022/07/03 05:32:48;;;;;;;4.72;1.55;;;16.80;99.90;;;;;;4879145;29;20554;-74
2022/07/03 05:35:14;;;;;;;2.05;1.20;;;16.80;99.90;;;;;;4879235;29;20081;-74
2022/07/03 05:37:40;;;;;;;6.57;1.55;;;16.80;99.90;;;;;;4879228;29;20032;-74
2022/07/03 05:40:07;;;;;;;6.03;1.38;;;16.90;99.90;;;;;;4879358;29;20029;-74
2022/07/03 05:42:33;;;;;;;8.63;1.70;;;16.90;99.90;;;;;;4879315;29;20033;-74
2022/07/03 05:44:59;;;;;;;3.92;1.52;;;17.00;99.90;;;;;;4879179;29;20430;-74
2022/07/03 05:47:25;;;;;;;4.35;1.30;;;17.10;99.90;;;;;;4879139;29;20069;-74
2022/07/03 05:49:51;;;;;;;5.57;1.25;;;17.10;99.90;;;;;;4879020;29;20021;-74
2022/07/03 05:52:17;;;;;;;4.70;1.10;;;17.20;99.90;;;;;;4878959;29;20121;-74
2022/07/03 05:54:43;;;;;;;4.18;1.10;;;17.30;99.90;;;;;;4878934;29;20113;-74
2022/07/03 05:57:12;;;;;;;3.78;1.52;;;17.40;99.90;;;;;;4878997;29;20037;-74
2022/07/03 05:59:38;;;;;;;3.05;1.30;;;17.30;99.90;;;;;;4878928;29;20085;-74
2022/07/03 06:02:04;;;;;;;6.88;1.52;;;17.30;99.90;;;;;;4878931;29;20033;-74
2022/07/03 06:04:29;;;;;;;4.72;1.58;;;17.30;99.90;;;;;;4878798;29;20124;-74
2022/07/03 06:06:55;;;;;;;3.67;1.20;;;17.20;99.90;;;;;;4878712;29;20025;-74
2022/07/03 06:09:24;;;;;;;5.00;1.17;;;17.20;99.90;;;;;;4878829;29;20486;-74
2022/07/03 06:11:49;;;;;;;4.55;1.50;;;17.30;99.90;;;;;;4878467;29;20033;-74
2022/07/03 06:14:15;;;;;;;6.28;1.33;;;17.50;99.90;;;;;;4878638;29;20040;-74
2022/07/03 06:16:41;;;;;;;3.90;1.30;;;17.60;99.90;;;;;;4878400;29;20081;-74
2022/07/03 06:19:08;;;;;;;4.47;1.73;;;17.60;99.90;;;;;;4879116;29;20017;-76
2022/07/03 06:21:33;;;;;;;6.22;1.20;;;17.80;99.90;;;;;;4864709;29;20041;-76
2022/07/03 06:24:02;;;;;;;4.43;1.67;;;18.00;99.90;;;;;;4877645;29;20028;-76
2022/07/03 06:26:29;;;;;;;22.35;13.45;;;18.20;99.90;;;;;;4880484;29;20040;-76
2022/07/03 06:28:54;;;;;;;5.65;3.03;;;18.30;99.90;;;;;;4878045;29;20037;-75
2022/07/03 06:31:20;;;;;;;4.00;1.50;;;18.30;99.90;;;;;;4877544;29;20025;-75
2022/07/03 06:33:46;;;;;;;7.22;4.18;;;18.20;99.90;;;;;;4877739;29;20164;-76
2022/07/03 06:36:11;;;;;;;4.32;2.10;;;18.20;99.90;;;;;;4877669;29;20028;-75
2022/07/03 06:38:37;;;;;;;10.38;5.47;;;18.20;99.90;;;;;;4878064;29;20025;-75
2022/07/03 06:41:03;;;;;;;7.07;1.83;;;18.30;99.90;;;;;;4877543;29;20037;-75
2022/07/03 06:43:28;;;;;;;5.80;1.80;;;18.30;99.90;;;;;;4877699;29;20017;-75
2022/07/03 06:45:54;;;;;;;7.15;3.22;;;18.30;99.90;;;;;;4876076;29;20051;-76
2022/07/03 06:48:19;;;;;;;4.05;1.30;;;18.20;99.90;;;;;;4883432;29;20347;-76
2022/07/03 06:50:46;;;;;;;4.75;1.52;;;18.30;99.90;;;;;;4888914;29;20045;-76
2022/07/03 06:53:12;;;;;;;3.72;0.90;;;18.40;99.90;;;;;;4888746;29;20084;-76
2022/07/03 06:55:37;;;;;;;4.35;1.55;;;18.40;99.90;;;;;;4888377;29;20032;-76
2022/07/03 06:58:03;;;;;;;8.07;4.88;;;18.40;99.90;;;;;;4887704;29;20040;-76
2022/07/03 07:00:29;;;;;;;8.77;3.03;;;18.50;99.90;;;;;;4888474;29;20029;-76
2022/07/03 07:02:54;;;;;;;16.35;10.80;;;18.60;99.90;;;;;;4889796;29;20079;-76
2022/07/03 07:05:20;;;;;;;4.40;2.40;;;18.60;99.90;;;;;;4889581;29;20248;-76
2022/07/03 07:07:46;;;;;;;2.13;0.95;;;18.70;99.90;;;;;;4888783;29;20279;-76
2022/07/03 07:10:12;;;;;;;2.38;1.10;;;18.70;99.90;;;;;;4888443;29;20088;-76
2022/07/03 07:12:37;;;;;;;3.97;1.30;;;18.70;99.90;;;;;;4888441;29;20021;-76
2022/07/03 07:15:03;;;;;;;7.13;1.25;;;18.80;99.90;;;;;;4888509;29;20049;-76
2022/07/03 07:17:29;;;;;;;4.10;1.60;;;18.90;99.90;;;;;;4888250;29;20053;-76
2022/07/03 07:19:56;;;;;;;2.90;1.17;;;18.80;99.90;;;;;;4888271;29;20024;-76
2022/07/03 07:22:22;;;;;;;3.58;1.48;;;18.80;99.90;;;;;;4888291;29;20025;-76
2022/07/03 07:24:48;;;;;;;2.90;1.10;;;18.90;99.90;;;;;;4888592;29;20058;-76
2022/07/03 07:27:13;;;;;;;3.10;1.35;;;19.00;99.90;;;;;;4888422;29;20051;-76
2022/07/03 07:29:40;;;;;;;4.45;1.15;;;18.90;99.90;;;;;;4887030;29;20052;-76
2022/07/03 07:32:06;;;;;;;3.70;1.02;;;18.80;99.90;;;;;;4887658;29;20326;-76
2022/07/03 07:34:31;;;;;;;2.65;0.98;;;18.90;99.90;;;;;;4886515;29;20041;-76
2022/07/03 07:36:57;;;;;;;2.03;0.90;;;18.90;99.90;;;;;;4886930;29;20040;-76
2022/07/03 07:39:23;;;;;;;3.58;1.08;;;18.90;99.90;;;;;;4885512;29;20282;-76
2022/07/03 07:41:48;;;;;;;3.60;1.10;;;19.00;99.90;;;;;;4888090;29;20340;-76
2022/07/03 07:44:14;;;;;;;2.60;0.95;;;19.00;99.90;;;;;;4887040;29;20327;-76
2022/07/03 07:46:40;;;;;;;4.93;1.35;;;18.90;99.90;;;;;;4876996;29;20029;-75
2022/07/03 07:49:05;;;;;;;3.58;1.00;;;18.90;99.90;;;;;;4817033;29;20055;-75
2022/07/03 07:51:31;;;;;;;2.45;1.00;;;18.90;99.90;;;;;;4824747;29;20026;-75
2022/07/03 07:53:57;;;;;;;3.17;0.95;;;18.90;99.90;;;;;;4835283;29;20038;-74
2022/07/03 07:56:26;;;;;;;5.15;1.13;;;19.00;99.90;;;;;;4825983;29;20027;-74
2022/07/03 07:58:52;;;;;;;4.38;1.17;;;18.90;99.90;;;;;;4828096;29;20030;-74
2022/07/03 08:06:49;;;;;;;4.03;1.20;;;19.00;99.90;;;;;;4832541;29;20036;-75
2022/07/03 08:09:15;;;;;;;3.00;1.00;;;18.80;99.90;;;;;;4832320;29;20054;-74
2022/07/03 08:11:41;;;;;;;4.07;1.00;;;18.80;99.90;;;;;;4843553;29;20097;-74
2022/07/03 08:14:07;;;;;;;5.75;1.27;;;18.80;99.90;;;;;;4850878;29;20097;-75
2022/07/03 08:16:34;;;;;;;2.92;1.13;;;18.90;99.90;;;;;;4850134;29;20093;-74
2022/07/03 08:19:00;;;;;;;4.10;1.23;;;18.90;99.90;;;;;;4850295;29;20381;-74
2022/07/03 08:21:26;;;;;;;3.17;1.00;;;19.10;99.90;;;;;;4850024;29;20018;-74
2022/07/03 08:23:52;;;;;;;3.45;1.40;;;19.00;99.90;;;;;;4850275;29;20040;-74
2022/07/03 08:26:18;;;;;;;4.68;1.40;;;19.00;99.90;;;;;;4844930;29;20030;-74
2022/07/03 08:28:43;;;;;;;4.75;1.17;;;19.10;99.90;;;;;;4843078;29;20275;-74
2022/07/03 08:31:09;;;;;;;6.72;1.27;;;19.20;99.90;;;;;;4849981;29;20052;-74
2022/07/03 08:33:35;;;;;;;3.47;1.17;;;19.20;99.90;;;;;;4850685;29;20062;-74
2022/07/03 08:36:00;;;;;;;3.05;1.27;;;19.30;99.90;;;;;;4850236;29;20033;-74
2022/07/03 08:38:33;;;;;;;4.75;1.15;;;19.40;99.90;;;;;;4850626;29;20093;-74
2022/07/03 08:41:00;;;;;;;6.45;1.30;;;19.50;99.90;;;;;;4849236;29;20025;-74
2022/07/03 08:43:27;;;;;;;3.70;1.10;;;19.40;99.90;;;;;;4837607;29;20083;-74
2022/07/03 08:45:54;;;;;;;3.42;1.20;;;19.50;99.90;;;;;;4849416;29;20100;-74
2022/07/03 08:48:21;;;;;;;5.22;1.60;;;19.70;99.90;;;;;;4849477;29;20052;-74
2022/07/03 08:50:49;;;;;;;1.95;0.80;;;19.60;99.90;;;;;;4846596;29;20030;-74
2022/07/03 08:53:16;;;;;;;6.32;1.25;;;19.80;99.90;;;;;;4823019;29;20079;-74
2022/07/03 08:55:41;;;;;;;2.67;1.00;;;19.90;99.90;;;;;;4822949;29;20042;-74
2022/07/03 08:58:12;;;;;;;2.72;0.90;;;19.90;99.90;;;;;;4823132;29;20436;-74
2022/07/03 09:00:38;;;;;;;2.33;0.90;;;20.00;99.90;;;;;;4823326;29;20014;-74
2022/07/03 09:03:09;;;;;;;2.55;1.15;;;20.10;99.90;;;;;;4830602;29;20081;-74
2022/07/03 09:05:35;;;;;;;3.22;0.70;;;20.30;99.90;;;;;;4832870;29;20034;-74
2022/07/03 09:08:02;;;;;;;3.65;1.02;;;20.40;99.90;;;;;;4831114;29;20037;-74
2022/07/03 09:10:28;;;;;;;3.28;1.40;;;20.50;99.90;;;;;;4837973;29;20025;-76
2022/07/03 09:12:55;;;;;;;1.02;0.65;;;20.70;99.90;;;;;;4838851;29;20275;-76
2022/07/03 09:15:22;;;;;;;4.35;1.10;;;20.80;99.90;;;;;;4838853;29;20146;-76
2022/07/03 09:17:59;;;;;;;5.40;0.82;;;20.80;99.90;;;;;;4838960;29;20560;-76
2022/07/03 09:20:30;;;;;;;2.15;0.80;;;20.70;99.90;;;;;;4838919;29;20064;-76
2022/07/03 09:23:15;;;;;;;3.00;1.00;;;20.70;99.90;;;;;;4837744;29;20093;-76
2022/07/03 09:25:57;;;;;;;5.15;0.90;;;20.70;99.90;;;;;;4838064;29;20086;-76
2022/07/03 09:28:40;;;;;;;1.67;0.80;;;20.90;99.90;;;;;;4829347;29;20194;-77
2022/07/03 09:31:06;;;;;;;2.03;0.77;;;21.00;99.90;;;;;;4838743;29;20500;-76
2022/07/03 09:33:32;;;;;;;2.00;0.80;;;21.10;99.90;;;;;;4838801;29;20065;-77
2022/07/03 09:35:57;;;;;;;1.67;0.80;;;21.00;99.90;;;;;;4841113;29;20086;-76
2022/07/03 09:38:24;;;;;;;1.33;0.60;;;21.00;99.90;;;;;;4847892;29;20329;-77
2022/07/03 09:40:54;;;;;;;3.63;0.80;;;21.00;99.90;;;;;;4849612;29;20083;-76
2022/07/03 09:43:25;;;;;;;3.45;0.70;;;21.10;99.90;;;;;;4848181;29;20026;-77
2022/07/03 09:45:52;;;;;;;1.95;0.68;;;21.10;99.90;;;;;;4850047;29;20034;-78
2022/07/03 09:48:47;;;;;;;5.43;0.80;;;21.10;99.90;;;;;;4848936;29;20054;-77
2022/07/03 09:51:20;;;;;;;;;;;21.10;99.90;;;;;;4849358;29;20048;-76
2022/07/03 09:54:04;;;;;;;2.38;0.90;;;21.10;99.90;;;;;;4849644;29;19956;-75
2022/07/03 09:56:37;;;;;;;3.05;0.80;;;21.20;99.90;;;;;;4848750;29;20026;-75
2022/07/03 09:59:03;;;;;;;3.40;0.70;;;21.30;99.90;;;;;;4852181;29;20041;-75
2022/07/03 10:01:29;;;;;;;3.30;1.20;;;21.30;99.90;;;;;;4852804;29;20094;-75
2022/07/03 10:04:11;;;;;;;1.75;0.60;;;21.40;99.90;;;;;;4852647;29;20053;-75
2022/07/03 10:06:49;;;;;;;2.45;0.77;;;21.50;99.90;;;;;;4852581;29;20030;-75
2022/07/03 10:09:16;;;;;;;4.22;0.70;;;21.40;99.90;;;;;;4852546;29;20037;-78
2022/07/03 10:11:44;;;;;;;2.95;0.90;;;21.50;99.90;;;;;;4852065;29;20083;-78
2022/07/03 10:14:16;;;;;;;1.48;0.70;;;21.60;99.90;;;;;;4852235;29;20321;-79
2022/07/03 10:16:42;;;;;;;4.75;1.00;;;21.60;99.90;;;;;;4852280;29;20070;-78
2022/07/03 10:19:21;;;;;;;4.57;0.85;;;21.60;99.90;;;;;;4852488;29;20271;-78
2022/07/03 10:21:52;;;;;;;9.73;1.00;;;21.50;99.90;;;;;;4852637;29;20321;-78
2022/07/03 10:24:20;;;;;;;3.67;1.05;;;21.70;99.90;;;;;;4852891;29;20331;-78
2022/07/03 10:26:47;;;;;;;2.72;0.60;;;21.80;99.90;;;;;;4842128;29;20045;-78
2022/07/03 10:29:15;;;;;;;2.72;0.60;;;21.80;99.90;;;;;;4847908;29;20037;-78
2022/07/03 10:31:48;;;;;;;2.25;0.70;;;21.90;99.90;;;;;;4851780;29;20022;-76
2022/07/03 10:34:24;;;;;;;4.57;0.82;;;22.00;99.90;;;;;;4852333;29;20037;-76
2022/07/03 10:37:01;;;;;;;2.55;0.90;;;22.00;99.90;;;;;;4851753;29;20026;-76
2022/07/03 10:39:55;;;;;;;1.85;0.60;;;22.10;99.90;;;;;;4851664;29;20034;-77
2022/07/03 10:45:18;;;;;;;2.40;0.80;;;22.20;99.90;;;;;;4851703;29;20290;-76
2022/07/03 10:47:48;;;;;;;2.53;0.80;;;22.30;99.90;;;;;;4850006;29;20240;-77
2022/07/03 10:50:22;;;;;;;2.10;0.80;;;22.50;99.90;;;;;;4851892;29;20030;-77
2022/07/03 10:52:48;;;;;;;1.50;0.55;;;22.50;99.50;;;;;;4852079;29;20074;-77
2022/07/03 10:55:15;;;;;;;1.02;0.50;;;22.50;99.40;;;;;;4852024;29;20058;-77
2022/07/03 10:58:08;;;;;;;1.77;0.60;;;22.60;99.90;;;;;;4851327;29;20026;-77
2022/07/03 11:00:54;;;;;;;2.65;0.70;;;22.70;99.20;;;;;;4851681;29;20082;-77
2022/07/03 11:03:51;;;;;;;2.45;0.70;;;22.80;99.30;;;;;;4851460;29;20066;-77
2022/07/03 11:06:17;;;;;;;7.00;1.05;;;22.70;99.90;;;;;;4851181;29;20033;-76
2022/07/03 11:09:02;;;;;;;4.43;1.30;;;22.60;99.90;;;;;;4850890;29;20038;-77
2022/07/03 11:11:55;;;;;;;4.68;1.08;;;22.50;99.90;;;;;;4850579;29;20022;-76
2022/07/03 11:14:29;;;;;;;4.10;1.08;;;22.50;99.90;;;;;;4851407;29;20082;-77
2022/07/03 11:17:21;;;;;;;2.55;0.70;;;22.50;99.90;;;;;;4850787;29;20046;-77
2022/07/03 11:22:58;;;;;;;3.13;0.88;;;22.60;99.90;;;;;;4839582;29;20066;-76
2022/07/03 11:25:25;;;;;;;1.98;0.88;;;22.50;99.90;;;;;;4851345;29;20018;-76
2022/07/03 11:27:52;;;;;;;4.43;0.80;;;22.40;99.90;;;;;;4839012;29;20214;-80
2022/07/03 11:30:21;;;;;;;2.80;1.05;;;22.50;99.90;;;;;;4851075;29;20217;-79
2022/07/03 11:32:57;;;;;;;1.75;1.10;;;22.60;99.90;;;;;;4851172;29;20057;-79
2022/07/03 11:35:45;;;;;;;2.65;0.90;;;22.80;99.50;;;;;;4851316;29;20139;-77
2022/07/03 11:38:30;;;;;;;3.00;0.80;;;22.60;99.60;;;;;;4850577;29;20030;-77
2022/07/03 11:40:58;;;;;;;1.73;0.77;;;22.70;99.90;;;;;;4850883;29;20030;-78
2022/07/03 11:43:24;;;;;;;1.77;0.90;;;22.70;99.90;;;;;;4850511;29;20033;-77
2022/07/03 11:45:50;;;;;;;2.60;0.60;;;22.60;99.90;;;;;;4850552;29;20030;-77
2022/07/03 11:48:19;;;;;;;5.38;0.85;;;22.70;99.90;;;;;;4846039;29;20191;-77
2022/07/03 11:50:46;;;;;;;3.25;0.73;;;22.60;99.90;;;;;;4843248;29;20306;-77
2022/07/03 11:53:19;;;;;;;2.00;0.60;;;22.80;99.90;;;;;;4851135;29;20064;-77
2022/07/03 11:55:52;;;;;;;2.15;0.50;;;22.70;99.90;;;;;;4851144;29;20034;-77
2022/07/03 11:58:18;;;;;;;1.80;0.60;;;22.70;99.90;;;;;;4851088;29;20058;-77
2022/07/03 12:00:44;;;;;;;3.53;1.13;;;22.90;99.90;;;;;;4850790;29;20070;-77
2022/07/03 12:03:23;;;;;;;2.33;0.85;;;23.10;99.60;;;;;;4850933;29;20046;-77
2022/07/03 12:05:59;;;;;;;3.95;0.88;;;22.90;99.40;;;;;;4850933;29;20018;-77
2022/07/03 12:08:30;;;;;;;2.53;0.70;;;22.90;99.50;;;;;;4846781;29;20475;-76
2022/07/03 12:11:12;;;;;;;4.90;0.80;;;23.00;99.40;;;;;;4839933;29;20025;-77
2022/07/03 12:13:38;;;;;;;2.60;0.70;;;23.00;99.30;;;;;;4844690;29;20029;-76
2022/07/03 12:16:09;;;;;;;1.83;0.60;;;23.00;99.10;;;;;;4850597;29;20121;-76
2022/07/03 12:18:53;;;;;;;3.00;0.60;;;23.00;99.10;;;;;;4850626;29;20210;-76
2022/07/03 12:21:21;;;;;;;5.55;0.80;;;23.30;98.70;;;;;;4850230;29;20026;-76
2022/07/03 12:23:55;;;;;;;1.92;0.80;;;23.20;98.40;;;;;;4844075;29;20103;-76
2022/07/03 12:26:29;;;;;;;1.17;0.40;;;23.30;98.60;;;;;;4833866;29;20093;-75
2022/07/03 12:28:55;;;;;;;;;;;23.20;97.90;;;;;;4844532;29;20330;-75
2022/07/03 12:31:21;;;;;;;1.48;0.50;;;23.50;98.40;;;;;;4849900;29;19908;-75
2022/07/03 12:33:47;;;;;;;1.42;0.57;;;23.70;98.30;;;;;;4850418;29;20321;-75
2022/07/03 12:36:13;;;;;;;3.35;0.60;;;23.80;97.40;;;;;;4849893;29;20030;-76
2022/07/03 12:38:40;;;;;;;3.13;0.70;;;24.00;97.60;;;;;;4849260;29;20150;-75
2022/07/03 12:41:08;;;;;;;2.33;0.60;;;24.10;97.50;;;;;;4850239;29;20097;-75
2022/07/03 12:43:41;;;;;;;2.80;0.70;;;24.20;97.60;;;;;;4850204;29;20291;-76
2022/07/03 12:46:36;;;;;;;1.48;0.60;;;24.30;97.90;;;;;;4849819;29;20025;-75
2022/07/03 12:49:09;;;;;;;2.97;0.77;;;24.50;97.50;;;;;;4853539;29;20045;-76
2022/07/03 12:51:49;;;;;;;1.73;0.50;;;24.60;96.90;;;;;;4848262;29;20091;-75
2022/07/03 12:54:21;;;;;;;3.40;0.80;;;24.40;97.60;;;;;;4850239;29;20018;-75
2022/07/03 13:00:21;;;;;;;2.90;0.90;;;24.30;98.30;;;;;;4849998;29;20041;-75
2022/07/03 13:02:48;;;;;;;2.72;0.70;;;24.40;98.30;;;;;;4853306;29;20042;-76
2022/07/03 13:05:25;;;;;;;2.70;0.77;;;24.70;97.40;;;;;;4849957;29;20041;-75
2022/07/03 13:07:55;;;;;;;2.92;0.63;;;24.30;97.90;;;;;;4850181;29;20045;-76
2022/07/03 13:10:23;;;;;;;3.90;0.82;;;24.30;97.90;;;;;;4849377;29;20146;-76
2022/07/03 13:12:58;;;;;;;5.22;0.73;;;24.50;98.20;;;;;;4850060;29;20030;-75
2022/07/03 13:15:28;;;;;;;2.35;0.75;;;24.60;98.70;;;;;;4849854;29;20018;-76
2022/07/03 13:17:54;;;;;;;3.97;0.70;;;24.80;98.10;;;;;;4849794;29;20034;-76
2022/07/03 13:20:37;;;;;;;2.80;0.75;;;24.90;97.70;;;;;;4850345;29;20301;-76
2022/07/03 13:23:05;;;;;;;4.00;0.90;;;25.20;97.40;;;;;;4849410;29;20037;-76